sensor_id;sensor_type;location;lat;lon;timestamp;temperature;humidity
20492;DHT22;10404;51.468;6.762;2023-09-30T00:01:09;16.00;69.50
20492;DHT22;10404;51.468;6.762;2023-09-30T00:03:35;16.00;69.40
20492;DHT22;10404;51.468;6.762;2023-09-30T00:06:01;15.90;69.50
20492;DHT22;10404;51.468;6.762;2023-09-30T00:08:26;15.90;69.50
20492;DHT22;10404;51.468;6.762;2023-09-30T00:10:52;15.80;69.50
20492;DHT22;10404;51.468;6.762;2023-09-30T00:13:19;15.80;69.50
20492;DHT22;10404;51.468;6.762;2023-09-30T00:15:45;15.80;69.50
20492;DHT22;10404;51.468;6.762;2023-09-30T00:18:10;15.80;69.50
20492;DHT22;10404;51.468;6.762;2023-09-30T00:20:36;15.80;69.50
20492;DHT22;10404;51.468;6.762;2023-09-30T00:23:01;15.70;69.50
20492;DHT22;10404;51.468;6.762;2023-09-30T00:25:27;15.70;69.60
20492;DHT22;10404;51.468;6.762;2023-09-30T00:27:53;15.60;69.60
20492;DHT22;10404;51.468;6.762;2023-09-30T00:30:18;15.60;69.60
20492;DHT22;10404;51.468;6.762;2023-09-30T00:32:44;15.60;69.70
20492;DHT22;10404;51.468;6.762;2023-09-30T00:35:09;15.60;69.70
20492;DHT22;10404;51.468;6.762;2023-09-30T00:37:40;15.60;69.70
20492;DHT22;10404;51.468;6.762;2023-09-30T00:40:06;15.60;69.70
20492;DHT22;10404;51.468;6.762;2023-09-30T00:42:32;15.60;69.70
20492;DHT22;10404;51.468;6.762;2023-09-30T00:44:58;15.60;69.70
20492;DHT22;10404;51.468;6.762;2023-09-30T00:47:23;15.50;69.70
20492;DHT22;10404;51.468;6.762;2023-09-30T00:49:50;15.50;69.80
20492;DHT22;10404;51.468;6.762;2023-09-30T00:52:17;15.50;69.80
20492;DHT22;10404;51.468;6.762;2023-09-30T00:54:43;15.50;69.80
20492;DHT22;10404;51.468;6.762;2023-09-30T00:57:10;15.50;69.80
20492;DHT22;10404;51.468;6.762;2023-09-30T00:59:36;15.40;69.80
20492;DHT22;10404;51.468;6.762;2023-09-30T01:02:01;15.40;69.90
20492;DHT22;10404;51.468;6.762;2023-09-30T01:04:28;15.40;69.90
20492;DHT22;10404;51.468;6.762;2023-09-30T01:06:54;15.40;69.90
20492;DHT22;10404;51.468;6.762;2023-09-30T01:09:20;15.40;69.90
20492;DHT22;10404;51.468;6.762;2023-09-30T01:11:46;15.30;70.00
20492;DHT22;10404;51.468;6.762;2023-09-30T01:14:47;15.30;70.00
20492;DHT22;10404;51.468;6.762;2023-09-30T01:17:12;15.30;70.00
20492;DHT22;10404;51.468;6.762;2023-09-30T01:19:42;15.30;70.00
20492;DHT22;10404;51.468;6.762;2023-09-30T01:22:11;15.20;70.00
20492;DHT22;10404;51.468;6.762;2023-09-30T01:24:40;15.20;70.10
20492;DHT22;10404;51.468;6.762;2023-09-30T01:27:06;15.20;70.10
20492;DHT22;10404;51.468;6.762;2023-09-30T01:29:32;15.20;70.10
20492;DHT22;10404;51.468;6.762;2023-09-30T01:31:58;15.20;70.10
20492;DHT22;10404;51.468;6.762;2023-09-30T01:34:23;15.20;70.10
20492;DHT22;10404;51.468;6.762;2023-09-30T01:36:49;15.10;70.10
20492;DHT22;10404;51.468;6.762;2023-09-30T01:39:14;15.10;70.10
20492;DHT22;10404;51.468;6.762;2023-09-30T01:41:40;15.10;70.10
20492;DHT22;10404;51.468;6.762;2023-09-30T01:44:07;15.00;70.20
20492;DHT22;10404;51.468;6.762;2023-09-30T01:46:33;15.00;70.20
20492;DHT22;10404;51.468;6.762;2023-09-30T01:48:58;15.00;70.20
20492;DHT22;10404;51.468;6.762;2023-09-30T01:51:24;15.00;70.30
20492;DHT22;10404;51.468;6.762;2023-09-30T01:53:50;15.00;70.30
20492;DHT22;10404;51.468;6.762;2023-09-30T01:56:16;15.00;70.30
20492;DHT22;10404;51.468;6.762;2023-09-30T01:58:41;15.00;70.30
20492;DHT22;10404;51.468;6.762;2023-09-30T02:01:08;14.90;70.40
20492;DHT22;10404;51.468;6.762;2023-09-30T02:03:33;14.90;70.40
20492;DHT22;10404;51.468;6.762;2023-09-30T02:05:59;14.90;70.40
20492;DHT22;10404;51.468;6.762;2023-09-30T02:08:24;14.90;70.40
20492;DHT22;10404;51.468;6.762;2023-09-30T02:10:51;14.90;70.40
20492;DHT22;10404;51.468;6.762;2023-09-30T02:13:17;14.90;70.40
20492;DHT22;10404;51.468;6.762;2023-09-30T02:15:43;14.80;70.50
20492;DHT22;10404;51.468;6.762;2023-09-30T02:18:09;14.80;70.50
20492;DHT22;10404;51.468;6.762;2023-09-30T02:20:35;14.80;70.50
20492;DHT22;10404;51.468;6.762;2023-09-30T02:23:05;14.80;70.50
20492;DHT22;10404;51.468;6.762;2023-09-30T02:25:31;14.70;70.50
20492;DHT22;10404;51.468;6.762;2023-09-30T02:27:57;14.70;70.50
20492;DHT22;10404;51.468;6.762;2023-09-30T02:30:23;14.70;70.50
20492;DHT22;10404;51.468;6.762;2023-09-30T02:32:49;14.70;70.60
20492;DHT22;10404;51.468;6.762;2023-09-30T02:35:15;14.60;70.60
20492;DHT22;10404;51.468;6.762;2023-09-30T02:37:41;14.60;70.60
20492;DHT22;10404;51.468;6.762;2023-09-30T02:40:07;14.60;70.70
20492;DHT22;10404;51.468;6.762;2023-09-30T02:42:36;14.60;70.60
20492;DHT22;10404;51.468;6.762;2023-09-30T02:45:04;14.60;70.60
20492;DHT22;10404;51.468;6.762;2023-09-30T02:47:29;14.50;70.60
20492;DHT22;10404;51.468;6.762;2023-09-30T02:49:57;14.50;70.60
20492;DHT22;10404;51.468;6.762;2023-09-30T02:52:23;14.50;70.50
20492;DHT22;10404;51.468;6.762;2023-09-30T02:54:49;14.50;70.60
20492;DHT22;10404;51.468;6.762;2023-09-30T02:57:15;14.40;70.60
20492;DHT22;10404;51.468;6.762;2023-09-30T02:59:41;14.40;70.70
20492;DHT22;10404;51.468;6.762;2023-09-30T03:02:06;14.40;70.70
20492;DHT22;10404;51.468;6.762;2023-09-30T03:04:32;14.40;70.60
20492;DHT22;10404;51.468;6.762;2023-09-30T03:06:58;14.30;70.60
20492;DHT22;10404;51.468;6.762;2023-09-30T03:09:23;14.30;70.70
20492;DHT22;10404;51.468;6.762;2023-09-30T03:11:49;14.30;70.70
20492;DHT22;10404;51.468;6.762;2023-09-30T03:14:15;14.30;70.70
20492;DHT22;10404;51.468;6.762;2023-09-30T03:16:40;14.30;70.70
20492;DHT22;10404;51.468;6.762;2023-09-30T03:19:07;14.30;70.70
20492;DHT22;10404;51.468;6.762;2023-09-30T03:21:37;14.20;70.70
20492;DHT22;10404;51.468;6.762;2023-09-30T03:24:05;14.20;70.70
20492;DHT22;10404;51.468;6.762;2023-09-30T03:26:33;14.20;70.80
20492;DHT22;10404;51.468;6.762;2023-09-30T03:28:59;14.20;70.70
20492;DHT22;10404;51.468;6.762;2023-09-30T03:31:25;14.10;70.70
20492;DHT22;10404;51.468;6.762;2023-09-30T03:33:50;14.10;70.80
20492;DHT22;10404;51.468;6.762;2023-09-30T03:36:20;14.10;70.80
20492;DHT22;10404;51.468;6.762;2023-09-30T03:38:45;14.10;70.80
20492;DHT22;10404;51.468;6.762;2023-09-30T03:41:11;14.10;70.80
20492;DHT22;10404;51.468;6.762;2023-09-30T03:43:39;14.00;70.80
20492;DHT22;10404;51.468;6.762;2023-09-30T03:46:07;14.00;70.80
20492;DHT22;10404;51.468;6.762;2023-09-30T03:48:32;14.00;70.80
20492;DHT22;10404;51.468;6.762;2023-09-30T03:51:11;14.00;70.80
20492;DHT22;10404;51.468;6.762;2023-09-30T03:53:43;14.00;70.80
20492;DHT22;10404;51.468;6.762;2023-09-30T03:56:09;13.90;70.80
20492;DHT22;10404;51.468;6.762;2023-09-30T03:58:42;13.90;70.80
20492;DHT22;10404;51.468;6.762;2023-09-30T04:01:09;13.90;70.80
20492;DHT22;10404;51.468;6.762;2023-09-30T04:03:38;13.90;70.80
20492;DHT22;10404;51.468;6.762;2023-09-30T04:06:05;13.90;70.90
20492;DHT22;10404;51.468;6.762;2023-09-30T04:08:34;13.90;70.80
20492;DHT22;10404;51.468;6.762;2023-09-30T04:11:00;13.90;70.80
20492;DHT22;10404;51.468;6.762;2023-09-30T04:13:26;13.90;70.80
20492;DHT22;10404;51.468;6.762;2023-09-30T04:15:53;13.90;70.80
20492;DHT22;10404;51.468;6.762;2023-09-30T04:18:19;13.80;70.80
20492;DHT22;10404;51.468;6.762;2023-09-30T04:20:48;13.70;70.90
20492;DHT22;10404;51.468;6.762;2023-09-30T04:23:14;13.70;70.80
20492;DHT22;10404;51.468;6.762;2023-09-30T04:25:40;13.70;70.90
20492;DHT22;10404;51.468;6.762;2023-09-30T04:28:06;13.70;70.90
20492;DHT22;10404;51.468;6.762;2023-09-30T04:30:34;13.70;70.90
20492;DHT22;10404;51.468;6.762;2023-09-30T04:32:59;13.60;70.90
20492;DHT22;10404;51.468;6.762;2023-09-30T04:35:26;13.60;70.90
20492;DHT22;10404;51.468;6.762;2023-09-30T04:37:52;13.60;70.90
20492;DHT22;10404;51.468;6.762;2023-09-30T04:40:17;13.60;71.00
20492;DHT22;10404;51.468;6.762;2023-09-30T04:42:47;13.60;70.90
20492;DHT22;10404;51.468;6.762;2023-09-30T04:45:13;13.60;70.90
20492;DHT22;10404;51.468;6.762;2023-09-30T04:47:42;13.50;71.00
20492;DHT22;10404;51.468;6.762;2023-09-30T04:50:10;13.50;71.00
20492;DHT22;10404;51.468;6.762;2023-09-30T04:52:37;13.50;71.00
20492;DHT22;10404;51.468;6.762;2023-09-30T04:55:03;13.50;70.90
20492;DHT22;10404;51.468;6.762;2023-09-30T04:57:29;13.50;71.00
20492;DHT22;10404;51.468;6.762;2023-09-30T04:59:55;13.50;71.00
20492;DHT22;10404;51.468;6.762;2023-09-30T05:02:21;13.50;71.00
20492;DHT22;10404;51.468;6.762;2023-09-30T05:04:47;13.50;71.00
20492;DHT22;10404;51.468;6.762;2023-09-30T05:07:12;13.50;71.00
20492;DHT22;10404;51.468;6.762;2023-09-30T05:09:39;13.40;71.00
20492;DHT22;10404;51.468;6.762;2023-09-30T05:12:04;13.30;71.00
20492;DHT22;10404;51.468;6.762;2023-09-30T05:14:30;13.30;71.10
20492;DHT22;10404;51.468;6.762;2023-09-30T05:16:56;13.30;71.00
20492;DHT22;10404;51.468;6.762;2023-09-30T05:19:22;13.30;71.10
20492;DHT22;10404;51.468;6.762;2023-09-30T05:21:48;13.30;71.10
20492;DHT22;10404;51.468;6.762;2023-09-30T05:24:14;13.30;71.10
20492;DHT22;10404;51.468;6.762;2023-09-30T05:26:40;13.30;71.10
20492;DHT22;10404;51.468;6.762;2023-09-30T05:29:06;13.30;71.10
20492;DHT22;10404;51.468;6.762;2023-09-30T05:31:32;13.20;71.10
20492;DHT22;10404;51.468;6.762;2023-09-30T05:33:58;13.20;71.10
20492;DHT22;10404;51.468;6.762;2023-09-30T05:36:24;13.10;71.10
20492;DHT22;10404;51.468;6.762;2023-09-30T05:38:49;13.10;71.10
20492;DHT22;10404;51.468;6.762;2023-09-30T05:41:15;13.10;71.10
20492;DHT22;10404;51.468;6.762;2023-09-30T05:43:40;13.10;71.10
20492;DHT22;10404;51.468;6.762;2023-09-30T05:46:08;13.10;71.10
20492;DHT22;10404;51.468;6.762;2023-09-30T05:48:34;13.10;71.10
20492;DHT22;10404;51.468;6.762;2023-09-30T05:51:07;13.10;71.10
20492;DHT22;10404;51.468;6.762;2023-09-30T05:53:35;13.10;71.20
20492;DHT22;10404;51.468;6.762;2023-09-30T05:56:03;13.10;71.20
20492;DHT22;10404;51.468;6.762;2023-09-30T05:58:31;13.10;71.20
20492;DHT22;10404;51.468;6.762;2023-09-30T06:01:00;13.00;71.20
20492;DHT22;10404;51.468;6.762;2023-09-30T06:03:26;13.00;71.20
20492;DHT22;10404;51.468;6.762;2023-09-30T06:05:54;13.00;71.20
20492;DHT22;10404;51.468;6.762;2023-09-30T06:08:21;13.00;71.30
20492;DHT22;10404;51.468;6.762;2023-09-30T06:10:47;13.00;71.30
20492;DHT22;10404;51.468;6.762;2023-09-30T06:13:12;13.00;71.20
20492;DHT22;10404;51.468;6.762;2023-09-30T06:15:42;13.00;71.20
20492;DHT22;10404;51.468;6.762;2023-09-30T06:18:09;12.90;71.20
20492;DHT22;10404;51.468;6.762;2023-09-30T06:20:37;12.90;71.20
20492;DHT22;10404;51.468;6.762;2023-09-30T06:23:11;12.90;71.20
20492;DHT22;10404;51.468;6.762;2023-09-30T06:25:36;12.90;71.20
20492;DHT22;10404;51.468;6.762;2023-09-30T06:28:02;12.90;71.20
20492;DHT22;10404;51.468;6.762;2023-09-30T06:30:28;12.90;71.20
20492;DHT22;10404;51.468;6.762;2023-09-30T06:33:00;12.90;71.20
20492;DHT22;10404;51.468;6.762;2023-09-30T06:35:26;12.90;71.20
20492;DHT22;10404;51.468;6.762;2023-09-30T06:37:55;12.90;71.20
20492;DHT22;10404;51.468;6.762;2023-09-30T06:40:21;12.90;71.20
20492;DHT22;10404;51.468;6.762;2023-09-30T06:42:47;12.90;71.20
20492;DHT22;10404;51.468;6.762;2023-09-30T06:45:13;12.80;71.30
20492;DHT22;10404;51.468;6.762;2023-09-30T06:47:40;12.80;71.30
20492;DHT22;10404;51.468;6.762;2023-09-30T06:50:11;12.80;71.40
20492;DHT22;10404;51.468;6.762;2023-09-30T06:52:39;12.80;71.30
20492;DHT22;10404;51.468;6.762;2023-09-30T06:55:05;12.80;71.30
20492;DHT22;10404;51.468;6.762;2023-09-30T06:57:35;12.80;71.20
20492;DHT22;10404;51.468;6.762;2023-09-30T07:00:14;12.80;71.40
20492;DHT22;10404;51.468;6.762;2023-09-30T07:02:40;12.80;71.40
20492;DHT22;10404;51.468;6.762;2023-09-30T07:05:13;12.80;71.50
20492;DHT22;10404;51.468;6.762;2023-09-30T07:07:39;12.80;71.40
20492;DHT22;10404;51.468;6.762;2023-09-30T07:10:08;12.80;71.40
20492;DHT22;10404;51.468;6.762;2023-09-30T07:12:34;12.80;71.30
20492;DHT22;10404;51.468;6.762;2023-09-30T07:15:01;12.90;71.20
20492;DHT22;10404;51.468;6.762;2023-09-30T07:17:28;12.80;71.50
20492;DHT22;10404;51.468;6.762;2023-09-30T07:19:53;12.80;72.20
20492;DHT22;10404;51.468;6.762;2023-09-30T07:22:19;12.80;72.70
20492;DHT22;10404;51.468;6.762;2023-09-30T07:24:44;12.90;72.50
20492;DHT22;10404;51.468;6.762;2023-09-30T07:27:10;12.90;72.50
20492;DHT22;10404;51.468;6.762;2023-09-30T07:29:38;13.00;72.30
20492;DHT22;10404;51.468;6.762;2023-09-30T07:32:04;13.10;72.00
20492;DHT22;10404;51.468;6.762;2023-09-30T07:34:30;13.30;71.70
20492;DHT22;10404;51.468;6.762;2023-09-30T07:36:55;13.50;70.60
20492;DHT22;10404;51.468;6.762;2023-09-30T07:39:21;13.70;70.30
20492;DHT22;10404;51.468;6.762;2023-09-30T07:41:46;13.70;70.20
20492;DHT22;10404;51.468;6.762;2023-09-30T07:44:12;13.90;70.10
20492;DHT22;10404;51.468;6.762;2023-09-30T07:46:38;14.00;69.80
20492;DHT22;10404;51.468;6.762;2023-09-30T07:49:03;14.00;69.80
20492;DHT22;10404;51.468;6.762;2023-09-30T07:51:30;14.00;70.40
20492;DHT22;10404;51.468;6.762;2023-09-30T07:53:56;14.10;69.70
20492;DHT22;10404;51.468;6.762;2023-09-30T07:56:22;14.30;69.60
20492;DHT22;10404;51.468;6.762;2023-09-30T07:58:48;14.40;69.30
20492;DHT22;10404;51.468;6.762;2023-09-30T08:01:14;14.40;69.20
20492;DHT22;10404;51.468;6.762;2023-09-30T08:03:40;14.40;69.30
20492;DHT22;10404;51.468;6.762;2023-09-30T08:06:07;14.50;69.30
20492;DHT22;10404;51.468;6.762;2023-09-30T08:08:34;14.60;69.20
20492;DHT22;10404;51.468;6.762;2023-09-30T08:11:00;14.70;69.10
20492;DHT22;10404;51.468;6.762;2023-09-30T08:13:26;15.00;68.50
20492;DHT22;10404;51.468;6.762;2023-09-30T08:15:51;15.20;68.00
20492;DHT22;10404;51.468;6.762;2023-09-30T08:18:18;15.10;68.30
20492;DHT22;10404;51.468;6.762;2023-09-30T08:20:44;15.20;68.10
20492;DHT22;10404;51.468;6.762;2023-09-30T08:23:10;15.30;68.10
20492;DHT22;10404;51.468;6.762;2023-09-30T08:25:37;15.30;68.40
20492;DHT22;10404;51.468;6.762;2023-09-30T08:28:03;15.30;68.40
20492;DHT22;10404;51.468;6.762;2023-09-30T08:30:29;15.30;68.80
20492;DHT22;10404;51.468;6.762;2023-09-30T08:32:56;15.40;68.60
20492;DHT22;10404;51.468;6.762;2023-09-30T08:35:21;15.60;68.40
20492;DHT22;10404;51.468;6.762;2023-09-30T08:37:47;15.60;68.60
20492;DHT22;10404;51.468;6.762;2023-09-30T08:40:12;15.50;69.20
20492;DHT22;10404;51.468;6.762;2023-09-30T08:42:40;15.60;68.90
20492;DHT22;10404;51.468;6.762;2023-09-30T08:45:09;16.00;68.00
20492;DHT22;10404;51.468;6.762;2023-09-30T08:47:36;16.10;67.50
20492;DHT22;10404;51.468;6.762;2023-09-30T08:50:02;16.20;67.80
20492;DHT22;10404;51.468;6.762;2023-09-30T08:52:32;16.20;67.80
20492;DHT22;10404;51.468;6.762;2023-09-30T08:54:58;16.40;67.60
20492;DHT22;10404;51.468;6.762;2023-09-30T08:57:24;16.50;67.40
20492;DHT22;10404;51.468;6.762;2023-09-30T08:59:53;16.70;67.20
20492;DHT22;10404;51.468;6.762;2023-09-30T09:02:19;16.70;67.20
20492;DHT22;10404;51.468;6.762;2023-09-30T09:04:45;16.80;67.10
20492;DHT22;10404;51.468;6.762;2023-09-30T09:07:12;16.70;67.60
20492;DHT22;10404;51.468;6.762;2023-09-30T09:09:37;16.60;68.00
20492;DHT22;10404;51.468;6.762;2023-09-30T09:12:03;16.70;68.30
20492;DHT22;10404;51.468;6.762;2023-09-30T09:14:41;16.90;67.90
20492;DHT22;10404;51.468;6.762;2023-09-30T09:17:10;16.90;67.90
20492;DHT22;10404;51.468;6.762;2023-09-30T09:19:35;17.00;67.90
20492;DHT22;10404;51.468;6.762;2023-09-30T09:22:03;17.20;67.60
20492;DHT22;10404;51.468;6.762;2023-09-30T09:24:38;17.30;67.40
20492;DHT22;10404;51.468;6.762;2023-09-30T09:27:12;17.50;67.10
20492;DHT22;10404;51.468;6.762;2023-09-30T09:29:42;17.40;67.20
20492;DHT22;10404;51.468;6.762;2023-09-30T09:32:12;17.50;67.40
20492;DHT22;10404;51.468;6.762;2023-09-30T09:34:39;17.50;67.60
20492;DHT22;10404;51.468;6.762;2023-09-30T09:37:20;17.50;67.70
20492;DHT22;10404;51.468;6.762;2023-09-30T09:39:55;17.40;67.90
20492;DHT22;10404;51.468;6.762;2023-09-30T09:42:32;17.30;68.30
20492;DHT22;10404;51.468;6.762;2023-09-30T09:45:04;17.10;69.00
20492;DHT22;10404;51.468;6.762;2023-09-30T09:47:32;17.00;69.70
20492;DHT22;10404;51.468;6.762;2023-09-30T09:49:58;16.90;70.30
20492;DHT22;10404;51.468;6.762;2023-09-30T09:52:25;16.80;70.40
20492;DHT22;10404;51.468;6.762;2023-09-30T09:54:52;16.80;71.40
20492;DHT22;10404;51.468;6.762;2023-09-30T09:57:18;17.00;71.40
20492;DHT22;10404;51.468;6.762;2023-09-30T09:59:45;17.40;70.30
20492;DHT22;10404;51.468;6.762;2023-09-30T10:02:14;17.60;69.20
20492;DHT22;10404;51.468;6.762;2023-09-30T10:04:44;17.80;68.40
20492;DHT22;10404;51.468;6.762;2023-09-30T10:07:33;17.80;68.80
20492;DHT22;10404;51.468;6.762;2023-09-30T10:10:01;18.00;67.80
20492;DHT22;10404;51.468;6.762;2023-09-30T10:12:31;18.00;68.20
20492;DHT22;10404;51.468;6.762;2023-09-30T10:15:01;18.10;68.20
20492;DHT22;10404;51.468;6.762;2023-09-30T10:17:56;18.00;67.70
20492;DHT22;10404;51.468;6.762;2023-09-30T10:20:27;18.10;68.30
20492;DHT22;10404;51.468;6.762;2023-09-30T10:23:19;18.30;67.60
20492;DHT22;10404;51.468;6.762;2023-09-30T10:26:13;18.40;67.20
20492;DHT22;10404;51.468;6.762;2023-09-30T10:28:46;18.30;67.20
20492;DHT22;10404;51.468;6.762;2023-09-30T10:31:20;18.40;68.10
20492;DHT22;10404;51.468;6.762;2023-09-30T10:36:30;18.30;67.60
20492;DHT22;10404;51.468;6.762;2023-09-30T10:38:57;18.20;67.70
20492;DHT22;10404;51.468;6.762;2023-09-30T10:46:48;18.00;68.60
20492;DHT22;10404;51.468;6.762;2023-09-30T10:49:35;18.00;68.60
20492;DHT22;10404;51.468;6.762;2023-09-30T10:52:04;18.00;68.70
20492;DHT22;10404;51.468;6.762;2023-09-30T10:54:31;18.00;69.50
20492;DHT22;10404;51.468;6.762;2023-09-30T10:57:00;18.10;69.40
20492;DHT22;10404;51.468;6.762;2023-09-30T10:59:26;18.20;68.70
20492;DHT22;10404;51.468;6.762;2023-09-30T11:01:53;18.20;68.30
20492;DHT22;10404;51.468;6.762;2023-09-30T11:04:19;18.20;68.20
20492;DHT22;10404;51.468;6.762;2023-09-30T11:06:45;18.30;68.00
20492;DHT22;10404;51.468;6.762;2023-09-30T11:09:20;18.40;68.50
20492;DHT22;10404;51.468;6.762;2023-09-30T11:11:48;18.50;67.90
20492;DHT22;10404;51.468;6.762;2023-09-30T11:16:49;18.60;67.30
20492;DHT22;10404;51.468;6.762;2023-09-30T11:19:15;18.60;67.60
20492;DHT22;10404;51.468;6.762;2023-09-30T11:21:41;18.70;67.80
20492;DHT22;10404;51.468;6.762;2023-09-30T11:24:09;18.80;67.80
20492;DHT22;10404;51.468;6.762;2023-09-30T11:26:35;18.80;67.30
20492;DHT22;10404;51.468;6.762;2023-09-30T11:29:07;18.90;67.20
20492;DHT22;10404;51.468;6.762;2023-09-30T11:31:33;18.90;66.80
20492;DHT22;10404;51.468;6.762;2023-09-30T11:34:02;18.90;67.90
20492;DHT22;10404;51.468;6.762;2023-09-30T11:36:40;19.00;67.80
20492;DHT22;10404;51.468;6.762;2023-09-30T11:39:08;19.10;66.90
20492;DHT22;10404;51.468;6.762;2023-09-30T11:41:39;19.10;66.70
20492;DHT22;10404;51.468;6.762;2023-09-30T11:44:11;19.20;66.50
20492;DHT22;10404;51.468;6.762;2023-09-30T11:46:53;19.30;66.70
20492;DHT22;10404;51.468;6.762;2023-09-30T11:52:02;19.40;66.10
20492;DHT22;10404;51.468;6.762;2023-09-30T11:54:37;19.50;65.90
20492;DHT22;10404;51.468;6.762;2023-09-30T11:57:07;19.50;65.50
20492;DHT22;10404;51.468;6.762;2023-09-30T11:59:35;19.60;65.20
20492;DHT22;10404;51.468;6.762;2023-09-30T12:02:01;19.60;65.50
20492;DHT22;10404;51.468;6.762;2023-09-30T12:04:29;19.70;64.70
20492;DHT22;10404;51.468;6.762;2023-09-30T12:06:55;19.70;65.20
20492;DHT22;10404;51.468;6.762;2023-09-30T12:09:22;19.70;65.80
20492;DHT22;10404;51.468;6.762;2023-09-30T12:11:51;19.70;65.00
20492;DHT22;10404;51.468;6.762;2023-09-30T12:14:17;19.80;65.00
20492;DHT22;10404;51.468;6.762;2023-09-30T12:16:43;19.80;64.70
20492;DHT22;10404;51.468;6.762;2023-09-30T12:19:13;19.90;64.70
20492;DHT22;10404;51.468;6.762;2023-09-30T12:21:39;19.90;64.10
20492;DHT22;10404;51.468;6.762;2023-09-30T12:24:06;19.90;64.60
20492;DHT22;10404;51.468;6.762;2023-09-30T12:26:33;19.90;64.30
20492;DHT22;10404;51.468;6.762;2023-09-30T12:28:58;19.90;63.70
20492;DHT22;10404;51.468;6.762;2023-09-30T12:31:24;19.90;64.00
20492;DHT22;10404;51.468;6.762;2023-09-30T12:33:50;20.00;63.70
20492;DHT22;10404;51.468;6.762;2023-09-30T12:36:19;20.00;63.90
20492;DHT22;10404;51.468;6.762;2023-09-30T12:38:45;20.00;63.60
20492;DHT22;10404;51.468;6.762;2023-09-30T12:41:10;20.00;64.00
20492;DHT22;10404;51.468;6.762;2023-09-30T12:43:37;20.00;64.50
20492;DHT22;10404;51.468;6.762;2023-09-30T12:46:02;20.00;65.10
20492;DHT22;10404;51.468;6.762;2023-09-30T12:48:30;20.00;64.40
20492;DHT22;10404;51.468;6.762;2023-09-30T12:50:55;20.10;64.20
20492;DHT22;10404;51.468;6.762;2023-09-30T12:53:21;20.10;64.90
20492;DHT22;10404;51.468;6.762;2023-09-30T12:55:47;20.10;64.90
20492;DHT22;10404;51.468;6.762;2023-09-30T12:58:12;20.30;64.70
20492;DHT22;10404;51.468;6.762;2023-09-30T13:00:38;20.30;63.80
20492;DHT22;10404;51.468;6.762;2023-09-30T13:03:04;20.30;63.70
20492;DHT22;10404;51.468;6.762;2023-09-30T13:05:29;20.30;64.00
20492;DHT22;10404;51.468;6.762;2023-09-30T13:07:55;20.50;63.60
20492;DHT22;10404;51.468;6.762;2023-09-30T13:10:22;20.50;63.60
20492;DHT22;10404;51.468;6.762;2023-09-30T13:12:51;20.50;64.10
20492;DHT22;10404;51.468;6.762;2023-09-30T13:15:17;20.60;63.80
20492;DHT22;10404;51.468;6.762;2023-09-30T13:17:46;20.70;62.80
20492;DHT22;10404;51.468;6.762;2023-09-30T13:20:11;20.70;63.90
20492;DHT22;10404;51.468;6.762;2023-09-30T13:22:40;20.80;63.40
20492;DHT22;10404;51.468;6.762;2023-09-30T13:25:06;20.80;63.40
20492;DHT22;10404;51.468;6.762;2023-09-30T13:27:38;20.90;64.00
20492;DHT22;10404;51.468;6.762;2023-09-30T13:30:06;21.00;63.50
20492;DHT22;10404;51.468;6.762;2023-09-30T13:32:35;21.10;62.70
20492;DHT22;10404;51.468;6.762;2023-09-30T13:35:03;21.00;60.90
20492;DHT22;10404;51.468;6.762;2023-09-30T13:37:31;20.80;56.70
20492;DHT22;10404;51.468;6.762;2023-09-30T13:39:59;20.60;56.10
20492;DHT22;10404;51.468;6.762;2023-09-30T13:42:24;20.50;56.70
20492;DHT22;10404;51.468;6.762;2023-09-30T13:44:50;20.50;56.90
20492;DHT22;10404;51.468;6.762;2023-09-30T13:47:16;20.50;56.50
20492;DHT22;10404;51.468;6.762;2023-09-30T13:49:42;20.40;55.70
20492;DHT22;10404;51.468;6.762;2023-09-30T13:52:07;20.30;56.10
20492;DHT22;10404;51.468;6.762;2023-09-30T13:54:35;20.40;56.40
20492;DHT22;10404;51.468;6.762;2023-09-30T13:57:04;20.50;57.50
20492;DHT22;10404;51.468;6.762;2023-09-30T13:59:33;20.40;56.70
20492;DHT22;10404;51.468;6.762;2023-09-30T14:01:58;20.30;56.10
20492;DHT22;10404;51.468;6.762;2023-09-30T14:04:24;20.30;55.30
20492;DHT22;10404;51.468;6.762;2023-09-30T14:06:49;20.30;55.80
20492;DHT22;10404;51.468;6.762;2023-09-30T14:09:15;20.30;55.80
20492;DHT22;10404;51.468;6.762;2023-09-30T14:11:41;20.40;55.80
20492;DHT22;10404;51.468;6.762;2023-09-30T14:14:07;20.50;55.80
20492;DHT22;10404;51.468;6.762;2023-09-30T14:16:35;20.50;55.40
20492;DHT22;10404;51.468;6.762;2023-09-30T14:19:01;20.50;55.50
20492;DHT22;10404;51.468;6.762;2023-09-30T14:21:27;20.50;55.40
20492;DHT22;10404;51.468;6.762;2023-09-30T14:23:53;20.50;55.40
20492;DHT22;10404;51.468;6.762;2023-09-30T14:26:19;20.50;55.30
20492;DHT22;10404;51.468;6.762;2023-09-30T14:28:45;20.50;54.80
20492;DHT22;10404;51.468;6.762;2023-09-30T14:31:10;20.50;55.90
20492;DHT22;10404;51.468;6.762;2023-09-30T14:33:36;20.60;55.30
20492;DHT22;10404;51.468;6.762;2023-09-30T14:36:03;20.60;55.10
20492;DHT22;10404;51.468;6.762;2023-09-30T14:38:31;20.60;55.20
20492;DHT22;10404;51.468;6.762;2023-09-30T14:40:57;20.60;54.30
20492;DHT22;10404;51.468;6.762;2023-09-30T14:43:22;20.60;54.80
20492;DHT22;10404;51.468;6.762;2023-09-30T14:45:48;20.60;54.50
20492;DHT22;10404;51.468;6.762;2023-09-30T14:48:13;20.70;55.00
20492;DHT22;10404;51.468;6.762;2023-09-30T14:50:50;20.70;54.80
20492;DHT22;10404;51.468;6.762;2023-09-30T14:53:16;20.60;54.10
20492;DHT22;10404;51.468;6.762;2023-09-30T14:55:41;20.70;54.10
20492;DHT22;10404;51.468;6.762;2023-09-30T14:58:08;20.60;54.20
20492;DHT22;10404;51.468;6.762;2023-09-30T15:00:33;20.60;55.00
20492;DHT22;10404;51.468;6.762;2023-09-30T15:02:59;20.70;54.60
20492;DHT22;10404;51.468;6.762;2023-09-30T15:05:25;20.70;53.70
20492;DHT22;10404;51.468;6.762;2023-09-30T15:07:50;20.60;54.20
20492;DHT22;10404;51.468;6.762;2023-09-30T15:10:16;20.60;52.70
20492;DHT22;10404;51.468;6.762;2023-09-30T15:12:42;20.60;52.90
20492;DHT22;10404;51.468;6.762;2023-09-30T15:15:08;20.60;53.50
20492;DHT22;10404;51.468;6.762;2023-09-30T15:17:34;20.60;53.30
20492;DHT22;10404;51.468;6.762;2023-09-30T15:20:03;20.60;53.70
20492;DHT22;10404;51.468;6.762;2023-09-30T15:22:31;20.60;54.00
20492;DHT22;10404;51.468;6.762;2023-09-30T15:24:56;20.60;53.90
20492;DHT22;10404;51.468;6.762;2023-09-30T15:27:22;20.60;54.00
20492;DHT22;10404;51.468;6.762;2023-09-30T15:29:47;20.60;54.40
20492;DHT22;10404;51.468;6.762;2023-09-30T15:32:13;20.60;53.40
20492;DHT22;10404;51.468;6.762;2023-09-30T15:34:39;20.60;53.70
20492;DHT22;10404;51.468;6.762;2023-09-30T15:37:08;20.50;54.10
20492;DHT22;10404;51.468;6.762;2023-09-30T15:39:38;20.60;54.90
20492;DHT22;10404;51.468;6.762;2023-09-30T15:42:04;20.50;54.20
20492;DHT22;10404;51.468;6.762;2023-09-30T15:44:30;20.50;53.70